Time;durP1;ratioP1;P1;durP2;ratioP2;P2;SDS_P1;SDS_P2;PMS_P1;PMS_P2;Temp;Humidity;BMP_temperature;BMP_pressure;BME280_temperature;BME280_humidity;BME280_pressure;Samples;Min_cycle;Max_cycle;Signal;HPM_P1;HPM_P2
2021/08/10 00:00:49;;;;;;;4.82;1.77;;;20.70;72.20;;;;;;5117647;28;20071;-67
2021/08/10 00:03:15;;;;;;;4.63;1.83;;;20.70;72.10;;;;;;5117139;28;20051;-67
2021/08/10 00:05:48;;;;;;;4.25;1.50;;;20.70;72.20;;;;;;5117541;28;20036;-67
2021/08/10 00:08:21;;;;;;;6.88;1.80;;;20.70;72.20;;;;;;5117170;28;20040;-67
2021/08/10 00:10:48;;;;;;;2.70;1.15;;;20.70;72.20;;;;;;5117614;28;20055;-68
2021/08/10 00:13:17;;;;;;;3.15;1.30;;;20.70;72.20;;;;;;5117041;28;20040;-67
2021/08/10 00:15:43;;;;;;;4.88;1.67;;;20.70;72.20;;;;;;5117915;28;20118;-67
2021/08/10 00:18:09;;;;;;;3.42;1.70;;;20.60;72.20;;;;;;5117376;28;20081;-67
2021/08/10 00:20:36;;;;;;;6.13;1.75;;;20.70;72.20;;;;;;5116812;28;20346;-68
2021/08/10 00:23:03;;;;;;;3.28;1.35;;;20.60;72.70;;;;;;5116975;28;20081;-68
2021/08/10 00:25:29;;;;;;;3.55;1.35;;;20.60;72.10;;;;;;5117075;28;20417;-68
2021/08/10 00:27:56;;;;;;;5.25;1.77;;;20.60;72.10;;;;;;5117133;28;20035;-67
2021/08/10 00:30:22;;;;;;;3.25;1.33;;;20.60;72.10;;;;;;5116830;28;20051;-67
2021/08/10 00:32:48;;;;;;;4.05;1.30;;;20.60;72.10;;;;;;5116647;28;20036;-67
2021/08/10 00:35:15;;;;;;;3.35;1.17;;;20.60;72.10;;;;;;5117135;28;20089;-67
2021/08/10 00:37:41;;;;;;;4.03;1.48;;;20.60;72.10;;;;;;5116556;28;20415;-67
2021/08/10 00:40:08;;;;;;;4.20;1.15;;;20.60;72.10;;;;;;5116885;28;20040;-68
2021/08/10 00:42:34;;;;;;;3.88;1.30;;;20.60;72.00;;;;;;5115810;28;20043;-67
2021/08/10 00:45:00;;;;;;;4.82;1.42;;;20.60;72.10;;;;;;5116358;28;20047;-67
2021/08/10 00:47:26;;;;;;;5.07;1.60;;;20.60;72.10;;;;;;5116874;28;20047;-67
2021/08/10 00:49:52;;;;;;;3.75;1.23;;;20.60;72.10;;;;;;5116686;28;20434;-67
2021/08/10 00:52:18;;;;;;;3.88;1.40;;;20.60;72.10;;;;;;5116781;28;20036;-67
2021/08/10 00:54:44;;;;;;;5.05;1.40;;;20.60;72.10;;;;;;5116905;28;20073;-67
2021/08/10 00:57:10;;;;;;;4.20;1.50;;;20.60;72.10;;;;;;5116433;28;20047;-69
2021/08/10 00:59:37;;;;;;;4.78;1.40;;;20.60;72.10;;;;;;5116745;28;20036;-67
2021/08/10 01:02:04;;;;;;;4.35;1.50;;;20.60;72.10;;;;;;5116067;28;20369;-67
2021/08/10 01:04:30;;;;;;;3.53;1.30;;;20.60;72.10;;;;;;5116584;28;20035;-66
2021/08/10 01:07:02;;;;;;;3.67;1.42;;;20.60;72.10;;;;;;5116273;28;20035;-67
2021/08/10 01:09:34;;;;;;;3.20;1.23;;;20.60;72.10;;;;;;5116348;28;20118;-67
2021/08/10 01:12:08;;;;;;;3.28;1.30;;;20.50;72.10;;;;;;5115899;28;20119;-68
2021/08/10 01:14:47;;;;;;;4.57;1.30;;;20.60;72.10;;;;;;5116168;28;20443;-68
2021/08/10 01:17:24;;;;;;;4.07;1.50;;;20.60;72.10;;;;;;5116331;28;20088;-67
2021/08/10 01:20:12;;;;;;;6.20;1.67;;;20.50;72.10;;;;;;5115874;28;20035;-68
2021/08/10 01:22:39;;;;;;;3.58;1.40;;;20.50;72.00;;;;;;5115757;28;20100;-67
2021/08/10 01:25:26;;;;;;;2.80;1.40;;;20.50;72.10;;;;;;5116277;28;20044;-67
2021/08/10 01:28:20;;;;;;;3.60;1.30;;;20.50;72.10;;;;;;5115944;28;20438;-67
2021/08/10 01:31:07;;;;;;;3.47;1.08;;;20.50;72.10;;;;;;5115743;28;20043;-67
2021/08/10 01:33:38;;;;;;;2.63;1.15;;;20.50;72.00;;;;;;5116017;28;20043;-67
2021/08/10 01:36:06;;;;;;;2.92;1.35;;;20.50;72.10;;;;;;5115570;28;20431;-67
2021/08/10 01:38:33;;;;;;;4.07;1.45;;;20.50;72.10;;;;;;5115872;28;20168;-67
2021/08/10 01:41:00;;;;;;;4.43;1.63;;;20.50;72.10;;;;;;5115767;28;20050;-68
2021/08/10 01:43:28;;;;;;;4.25;1.30;;;20.50;72.10;;;;;;5115841;28;20047;-67
2021/08/10 01:45:55;;;;;;;3.28;1.20;;;20.50;72.00;;;;;;5115549;28;20118;-67
2021/08/10 01:48:23;;;;;;;5.75;1.65;;;20.50;72.00;;;;;;5115364;28;20043;-67
2021/08/10 01:50:49;;;;;;;3.28;1.02;;;20.50;72.00;;;;;;5116324;28;20058;-67
2021/08/10 01:53:17;;;;;;;2.70;1.33;;;20.50;72.00;;;;;;5115959;28;20450;-67
2021/08/10 01:55:44;;;;;;;4.57;1.67;;;20.50;72.00;;;;;;5118891;28;20111;-68
2021/08/10 01:58:11;;;;;;;4.82;1.30;;;20.40;72.00;;;;;;5120246;28;20050;-67
2021/08/10 02:00:38;;;;;;;3.47;1.20;;;20.50;72.00;;;;;;5120094;28;20043;-67
2021/08/10 02:03:10;;;;;;;3.33;1.55;;;20.40;72.00;;;;;;5119603;28;20359;-68
2021/08/10 02:05:37;;;;;;;4.57;1.63;;;20.50;72.00;;;;;;5119741;28;20044;-67
2021/08/10 02:08:04;;;;;;;2.97;1.17;;;20.50;72.00;;;;;;5119470;28;20063;-68
2021/08/10 02:10:30;;;;;;;3.53;1.25;;;20.50;72.00;;;;;;5119409;28;20104;-67
2021/08/10 02:12:58;;;;;;;4.50;1.55;;;20.50;72.00;;;;;;5119260;28;20347;-67
2021/08/10 02:15:25;;;;;;;5.22;1.50;;;20.50;72.00;;;;;;5119826;28;20126;-68
2021/08/10 02:17:51;;;;;;;4.72;1.50;;;20.50;72.00;;;;;;5119559;28;20035;-68
2021/08/10 02:20:17;;;;;;;3.53;1.20;;;20.50;72.00;;;;;;5119465;28;20044;-67
2021/08/10 02:22:46;;;;;;;4.25;1.50;;;20.50;72.00;;;;;;5119480;28;20107;-67
2021/08/10 02:25:14;;;;;;;2.80;1.00;;;20.40;71.90;;;;;;5101247;28;20109;-67
2021/08/10 02:27:42;;;;;;;3.60;1.00;;;20.50;72.00;;;;;;5119021;28;20040;-67
2021/08/10 02:30:12;;;;;;;3.10;1.40;;;20.40;72.00;;;;;;5119813;28;20097;-67
2021/08/10 02:32:41;;;;;;;3.20;1.40;;;20.40;72.00;;;;;;5119012;28;20058;-67
2021/08/10 02:35:09;;;;;;;4.38;1.65;;;20.40;72.00;;;;;;5119781;28;20047;-68
2021/08/10 02:37:37;;;;;;;4.80;1.40;;;20.40;72.00;;;;;;5119429;28;20051;-67
2021/08/10 02:40:09;;;;;;;4.07;1.65;;;20.40;72.00;;;;;;5119156;28;20054;-68
2021/08/10 02:42:36;;;;;;;3.67;1.60;;;20.40;72.00;;;;;;5118843;28;20071;-67
2021/08/10 02:45:03;;;;;;;3.28;1.45;;;20.40;72.00;;;;;;5118908;28;20051;-67
2021/08/10 02:47:29;;;;;;;2.40;1.27;;;20.40;72.00;;;;;;5119112;28;20047;-67
2021/08/10 02:49:55;;;;;;;4.47;1.40;;;20.40;72.00;;;;;;5118239;28;20039;-67
2021/08/10 02:52:21;;;;;;;2.97;1.45;;;20.40;72.00;;;;;;5119125;28;20039;-67
2021/08/10 02:54:47;;;;;;;3.95;1.55;;;20.40;71.90;;;;;;5118681;28;20108;-68
2021/08/10 02:57:37;;;;;;;2.47;1.20;;;20.40;72.00;;;;;;5118523;28;20381;-68
2021/08/10 03:00:11;;;;;;;4.68;1.35;;;20.40;71.90;;;;;;5118666;28;20085;-67
2021/08/10 03:02:52;;;;;;;5.30;1.65;;;20.40;72.00;;;;;;5118287;28;20066;-67
2021/08/10 03:05:22;;;;;;;4.93;1.75;;;20.40;72.00;;;;;;5118694;28;20059;-67
2021/08/10 03:07:53;;;;;;;5.57;2.00;;;20.40;72.00;;;;;;5119202;28;20046;-67
2021/08/10 03:10:20;;;;;;;3.83;1.83;;;20.40;72.00;;;;;;5118547;28;20043;-67
2021/08/10 03:12:53;;;;;;;4.40;1.50;;;20.40;72.00;;;;;;5119082;28;20047;-68
2021/08/10 03:15:27;;;;;;;;;;;20.40;72.00;;;;;;5119116;28;20040;-67
2021/08/10 03:18:02;;;;;;;3.85;1.40;;;20.40;72.00;;;;;;5117924;28;20381;-67
2021/08/10 03:20:32;;;;;;;3.80;1.40;;;20.40;72.10;;;;;;5118143;28;20062;-67
2021/08/10 03:22:59;;;;;;;5.05;1.60;;;20.40;72.00;;;;;;5117580;28;20046;-66
2021/08/10 03:25:27;;;;;;;4.88;1.40;;;20.40;72.00;;;;;;5118851;28;20044;-67
2021/08/10 03:27:55;;;;;;;4.50;1.40;;;20.40;72.00;;;;;;5118338;28;20315;-67
2021/08/10 03:30:22;;;;;;;3.85;1.60;;;20.40;72.00;;;;;;5118161;28;20044;-67
2021/08/10 03:32:51;;;;;;;3.30;1.40;;;20.30;72.00;;;;;;5118249;28;20498;-67
2021/08/10 03:35:17;;;;;;;4.13;1.20;;;20.40;72.00;;;;;;5118350;28;20043;-67
2021/08/10 03:37:44;;;;;;;3.70;1.50;;;20.40;72.00;;;;;;5117601;28;20043;-67
2021/08/10 03:40:11;;;;;;;3.97;1.60;;;20.40;72.00;;;;;;5118098;28;20052;-67
2021/08/10 03:42:38;;;;;;;2.53;1.20;;;20.40;72.00;;;;;;5118234;28;20105;-67
2021/08/10 03:45:05;;;;;;;2.72;1.35;;;20.30;72.00;;;;;;5117722;28;20045;-68
2021/08/10 03:47:32;;;;;;;4.03;1.42;;;20.40;72.10;;;;;;5117994;28;20043;-67
2021/08/10 03:49:59;;;;;;;3.28;1.40;;;20.30;72.00;;;;;;5117458;28;20073;-68
2021/08/10 03:52:29;;;;;;;5.60;1.52;;;20.30;72.00;;;;;;5117752;28;20121;-67
2021/08/10 03:54:55;;;;;;;3.88;1.30;;;20.30;72.00;;;;;;5117495;28;20494;-67
2021/08/10 03:57:23;;;;;;;6.03;1.75;;;20.30;72.00;;;;;;5117257;28;20046;-67
2021/08/10 03:59:54;;;;;;;3.53;1.40;;;20.40;72.10;;;;;;5117487;28;20048;-67
2021/08/10 04:02:22;;;;;;;4.75;1.50;;;20.30;72.00;;;;;;5116845;28;20382;-67
2021/08/10 04:04:52;;;;;;;4.05;1.70;;;20.30;72.00;;;;;;5118246;28;20123;-67
2021/08/10 04:07:19;;;;;;;4.18;1.90;;;20.30;72.00;;;;;;5117057;28;20108;-66
2021/08/10 04:09:46;;;;;;;5.18;1.58;;;20.30;71.90;;;;;;5117133;28;20035;-67
2021/08/10 04:12:13;;;;;;;4.65;2.03;;;20.30;72.00;;;;;;5117447;28;20070;-67
2021/08/10 04:14:40;;;;;;;3.67;1.75;;;20.30;72.00;;;;;;5117372;28;20126;-67
2021/08/10 04:17:07;;;;;;;4.20;1.70;;;20.30;72.00;;;;;;5116391;28;20063;-67
2021/08/10 04:19:38;;;;;;;2.67;1.58;;;20.30;72.00;;;;;;5117884;28;20142;-66
2021/08/10 04:22:05;;;;;;;3.53;1.30;;;20.30;72.00;;;;;;5117134;28;20114;-67
2021/08/10 04:24:31;;;;;;;5.10;1.58;;;20.30;72.00;;;;;;5116772;28;20051;-67
2021/08/10 04:26:57;;;;;;;3.53;1.50;;;20.30;72.00;;;;;;5117277;28;20051;-67
2021/08/10 04:29:24;;;;;;;5.68;1.35;;;20.30;72.10;;;;;;5117057;28;20062;-66
2021/08/10 04:31:50;;;;;;;3.17;1.20;;;20.30;72.00;;;;;;5117211;28;20131;-67
2021/08/10 04:34:16;;;;;;;3.88;1.55;;;20.30;72.10;;;;;;5116738;28;20068;-68
2021/08/10 04:36:41;;;;;;;4.47;1.73;;;20.30;72.10;;;;;;5099219;28;20035;-67
2021/08/10 04:39:08;;;;;;;3.10;1.52;;;20.30;72.10;;;;;;5116471;28;20397;-67
2021/08/10 04:41:33;;;;;;;3.67;1.70;;;20.30;72.10;;;;;;5116714;28;20044;-68
2021/08/10 04:43:59;;;;;;;3.55;1.58;;;20.30;72.10;;;;;;5117057;28;20374;-68
2021/08/10 04:46:27;;;;;;;4.20;1.60;;;20.30;72.10;;;;;;5116540;28;20042;-67
2021/08/10 04:48:54;;;;;;;2.47;1.50;;;20.30;72.10;;;;;;5116538;28;20497;-68
2021/08/10 04:51:20;;;;;;;3.10;1.38;;;20.30;72.10;;;;;;5116746;28;20048;-67
2021/08/10 04:53:46;;;;;;;5.25;1.75;;;20.30;72.10;;;;;;5116781;28;20040;-66
2021/08/10 04:56:12;;;;;;;3.85;1.40;;;20.30;72.10;;;;;;5116878;28;20096;-68
2021/08/10 04:58:39;;;;;;;3.88;1.38;;;20.30;72.10;;;;;;5116391;28;20040;-67
2021/08/10 05:01:05;;;;;;;3.40;1.23;;;20.30;72.10;;;;;;5116867;28;20036;-67
2021/08/10 05:03:31;;;;;;;3.67;1.58;;;20.30;72.10;;;;;;5115780;28;20051;-67
2021/08/10 05:05:58;;;;;;;3.92;1.35;;;20.30;72.10;;;;;;5116152;28;20040;-67
2021/08/10 05:08:25;;;;;;;2.75;1.40;;;20.30;72.00;;;;;;5116253;28;20084;-68
2021/08/10 05:10:53;;;;;;;2.55;1.23;;;20.30;72.00;;;;;;5116393;28;20051;-67
2021/08/10 05:13:20;;;;;;;3.25;1.40;;;20.30;72.10;;;;;;5116249;28;20063;-68
2021/08/10 05:15:45;;;;;;;3.28;1.30;;;20.30;72.10;;;;;;5116742;28;20043;-67
2021/08/10 05:18:11;;;;;;;3.30;1.35;;;20.20;72.00;;;;;;5116016;28;20370;-67
2021/08/10 05:20:37;;;;;;;3.45;1.58;;;20.20;72.60;;;;;;5116129;28;20438;-67
2021/08/10 05:23:04;;;;;;;4.38;1.83;;;20.20;72.00;;;;;;5115585;28;20027;-67
2021/08/10 05:25:29;;;;;;;3.20;1.60;;;20.20;72.10;;;;;;5116128;28;20040;-67
2021/08/10 05:27:55;;;;;;;2.50;1.05;;;20.30;72.10;;;;;;5115880;28;20491;-68
2021/08/10 05:30:21;;;;;;;3.38;1.42;;;20.30;72.10;;;;;;5115901;28;20050;-68
2021/08/10 05:32:48;;;;;;;2.78;1.10;;;20.20;72.00;;;;;;5116090;28;20035;-68
2021/08/10 05:35:13;;;;;;;3.40;1.42;;;20.20;72.00;;;;;;5115683;28;20115;-67
2021/08/10 05:37:39;;;;;;;3.70;1.33;;;20.20;72.00;;;;;;5115800;28;20414;-67
2021/08/10 05:40:06;;;;;;;3.83;1.65;;;20.30;72.10;;;;;;5116218;28;20040;-67
2021/08/10 05:42:32;;;;;;;3.45;1.75;;;20.30;72.10;;;;;;5115861;28;20063;-67
2021/08/10 05:44:57;;;;;;;2.40;1.23;;;20.30;72.00;;;;;;5115962;28;20083;-67
2021/08/10 05:47:23;;;;;;;4.03;1.40;;;20.20;72.00;;;;;;5116001;28;20453;-68
2021/08/10 05:49:49;;;;;;;4.63;1.88;;;20.30;72.10;;;;;;5115571;28;20389;-68
2021/08/10 05:52:15;;;;;;;5.18;1.85;;;20.20;72.00;;;;;;5115475;28;20122;-71
2021/08/10 05:54:41;;;;;;;3.88;1.73;;;20.20;72.10;;;;;;5115671;28;20051;-68
2021/08/10 05:57:07;;;;;;;4.53;1.77;;;20.30;72.10;;;;;;5115902;28;20040;-68
2021/08/10 05:59:33;;;;;;;8.02;2.13;;;20.20;72.10;;;;;;5115404;28;20043;-67
2021/08/10 06:01:59;;;;;;;5.32;1.88;;;20.20;72.20;;;;;;5114920;28;20047;-68
2021/08/10 06:04:25;;;;;;;5.53;2.83;;;20.30;72.30;;;;;;5115334;28;20036;-67
2021/08/10 06:06:52;;;;;;;6.50;1.67;;;20.20;72.30;;;;;;5115585;28;20050;-67
2021/08/10 06:09:17;;;;;;;10.07;2.50;;;20.20;72.20;;;;;;5115820;28;20055;-67
2021/08/10 06:11:43;;;;;;;7.45;2.13;;;20.20;72.30;;;;;;5116052;28;20088;-67
2021/08/10 06:14:10;;;;;;;8.02;2.38;;;20.30;72.30;;;;;;5115427;28;20108;-67
2021/08/10 06:16:37;;;;;;;9.23;2.22;;;20.20;72.30;;;;;;5115573;28;20454;-66
2021/08/10 06:19:03;;;;;;;4.82;1.90;;;20.30;72.50;;;;;;5115310;28;20043;-68
2021/08/10 06:21:29;;;;;;;6.57;2.25;;;20.30;72.50;;;;;;5115282;28;20051;-68
2021/08/10 06:23:55;;;;;;;7.85;2.03;;;20.30;72.60;;;;;;5115587;28;20046;-68
2021/08/10 06:26:21;;;;;;;5.60;1.83;;;20.30;72.50;;;;;;5115411;28;20040;-68
2021/08/10 06:28:47;;;;;;;4.07;2.05;;;20.30;72.50;;;;;;5116095;28;20046;-68
2021/08/10 06:31:13;;;;;;;6.60;2.25;;;20.30;72.50;;;;;;5115119;28;20126;-69
2021/08/10 06:33:39;;;;;;;6.32;2.45;;;20.30;72.50;;;;;;5115621;28;20119;-68
2021/08/10 06:36:05;;;;;;;5.97;1.85;;;20.30;72.50;;;;;;5115320;28;20063;-68
2021/08/10 06:38:32;;;;;;;9.55;2.00;;;20.30;72.50;;;;;;5114863;28;20101;-71
2021/08/10 06:40:59;;;;;;;14.60;2.22;;;20.30;72.40;;;;;;5117746;28;20039;-69
2021/08/10 06:43:25;;;;;;;6.75;2.03;;;20.30;72.50;;;;;;5097079;28;20044;-69
2021/08/10 06:45:51;;;;;;;11.18;2.63;;;20.30;72.50;;;;;;5095555;28;20123;-70
2021/08/10 06:48:17;;;;;;;6.13;2.40;;;20.30;72.60;;;;;;5097921;28;20131;-68
2021/08/10 06:50:43;;;;;;;7.88;2.58;;;20.30;72.70;;;;;;5096040;28;20093;-68
2021/08/10 06:53:09;;;;;;;4.57;1.92;;;20.30;72.90;;;;;;5086938;28;20085;-67
2021/08/10 06:55:34;;;;;;;5.03;2.10;;;20.30;72.90;;;;;;5098358;28;20115;-68
2021/08/10 06:58:00;;;;;;;5.07;1.80;;;20.30;72.80;;;;;;5085606;28;20492;-69
2021/08/10 07:00:26;;;;;;;4.65;1.58;;;20.30;72.70;;;;;;5077951;28;20443;-68
2021/08/10 07:02:52;;;;;;;4.15;1.70;;;20.30;72.70;;;;;;5077825;28;20200;-68
2021/08/10 07:05:19;;;;;;;6.03;1.70;;;20.30;72.60;;;;;;5078008;28;20066;-68
2021/08/10 07:07:44;;;;;;;6.38;1.80;;;20.30;72.50;;;;;;5077533;28;20040;-68
2021/08/10 07:10:11;;;;;;;2.97;1.70;;;20.30;72.30;;;;;;5077960;28;20347;-68
2021/08/10 07:12:36;;;;;;;5.70;2.20;;;20.30;72.00;;;;;;5077873;28;20447;-68
2021/08/10 07:15:03;;;;;;;3.13;1.70;;;20.20;71.70;;;;;;5077757;28;20396;-69
2021/08/10 07:17:29;;;;;;;4.32;1.75;;;20.20;71.50;;;;;;5077636;28;20040;-68
2021/08/10 07:19:55;;;;;;;4.20;2.03;;;20.20;71.40;;;;;;5078204;28;20044;-69
2021/08/10 07:22:21;;;;;;;4.57;1.88;;;20.10;71.40;;;;;;5077289;28;20151;-68
2021/08/10 07:24:46;;;;;;;3.03;1.73;;;20.10;71.40;;;;;;5077711;28;20116;-68
2021/08/10 07:27:12;;;;;;;2.90;1.73;;;20.10;71.30;;;;;;5077476;28;20047;-68
2021/08/10 07:29:38;;;;;;;2.75;1.60;;;20.10;71.30;;;;;;5079237;28;20398;-67
2021/08/10 07:32:04;;;;;;;3.03;1.55;;;20.10;71.40;;;;;;5096955;28;20105;-68
2021/08/10 07:34:30;;;;;;;4.78;2.13;;;20.10;71.40;;;;;;5097667;28;20317;-68
2021/08/10 07:36:56;;;;;;;4.05;1.90;;;20.10;71.50;;;;;;5097552;28;20043;-68
2021/08/10 07:39:22;;;;;;;3.83;1.73;;;20.10;71.60;;;;;;5097753;28;20485;-68
2021/08/10 07:41:48;;;;;;;3.53;2.10;;;20.10;71.70;;;;;;5097799;28;20145;-68
2021/08/10 07:44:14;;;;;;;5.85;2.40;;;20.10;71.80;;;;;;5097605;28;20036;-67
2021/08/10 07:46:40;;;;;;;5.45;1.98;;;20.10;72.00;;;;;;5097214;28;20044;-68
2021/08/10 07:49:06;;;;;;;6.15;2.50;;;20.10;72.20;;;;;;5097250;28;20032;-66
2021/08/10 07:51:32;;;;;;;5.82;1.90;;;20.10;72.60;;;;;;5079911;28;20067;-70
2021/08/10 07:53:58;;;;;;;5.20;1.80;;;20.10;72.90;;;;;;5077244;28;20041;-68
2021/08/10 07:56:24;;;;;;;9.00;2.25;;;20.20;72.80;;;;;;5077010;28;20040;-72
2021/08/10 07:58:50;;;;;;;5.72;2.55;;;20.20;73.00;;;;;;5059754;28;20344;-70
2021/08/10 08:01:15;;;;;;;6.93;2.88;;;20.30;74.10;;;;;;5077273;28;20469;-71
2021/08/10 08:03:41;;;;;;;5.90;3.13;;;20.30;73.60;;;;;;5094266;28;20052;-71
2021/08/10 08:06:09;;;;;;;7.25;2.97;;;20.30;73.50;;;;;;5096911;28;20036;-72
2021/08/10 08:08:38;;;;;;;10.43;3.35;;;20.30;73.40;;;;;;5097169;28;20040;-74
2021/08/10 08:11:05;;;;;;;10.43;3.67;;;20.30;73.60;;;;;;5095037;28;20119;-73
2021/08/10 08:13:31;;;;;;;11.27;3.58;;;20.30;73.90;;;;;;5096743;28;20040;-74
2021/08/10 08:15:57;;;;;;;5.90;2.83;;;20.30;73.70;;;;;;5096888;28;20115;-73
2021/08/10 08:18:23;;;;;;;9.95;3.08;;;20.20;73.60;;;;;;5096935;28;20407;-73
2021/08/10 08:20:50;;;;;;;20.67;4.10;;;20.20;73.60;;;;;;5096861;28;20443;-72
2021/08/10 08:23:17;;;;;;;15.38;3.22;;;20.20;73.70;;;;;;5096958;28;20035;-73
2021/08/10 08:25:43;;;;;;;16.63;3.55;;;20.20;73.70;;;;;;5078814;28;20413;-74
2021/08/10 08:28:10;;;;;;;7.68;3.33;;;20.20;73.70;;;;;;5096857;28;20043;-75
2021/08/10 08:30:40;;;;;;;8.55;3.30;;;20.20;73.50;;;;;;5096590;28;20487;-75
2021/08/10 08:33:07;;;;;;;7.07;2.63;;;20.20;73.80;;;;;;5096318;28;20070;-77
2021/08/10 08:35:34;;;;;;;7.05;3.08;;;20.10;73.90;;;;;;5080587;28;20093;-75
2021/08/10 08:38:00;;;;;;;6.78;2.75;;;20.10;73.90;;;;;;5076023;28;20416;-74
2021/08/10 08:40:26;;;;;;;7.85;3.00;;;20.10;73.90;;;;;;5076336;28;20060;-75
2021/08/10 08:42:52;;;;;;;9.32;3.50;;;20.10;73.90;;;;;;5075809;28;20079;-74
2021/08/10 08:45:18;;;;;;;8.35;2.90;;;20.10;74.00;;;;;;5075952;28;20044;-74
2021/08/10 08:47:50;;;;;;;9.15;3.10;;;20.00;74.00;;;;;;5076312;28;20048;-73
2021/08/10 08:50:22;;;;;;;4.70;2.72;;;20.00;74.20;;;;;;5075820;28;20040;-73
2021/08/10 08:52:53;;;;;;;7.70;2.72;;;20.00;74.20;;;;;;5076545;28;20320;-73
2021/08/10 08:55:20;;;;;;;6.43;2.83;;;20.00;74.20;;;;;;5075717;28;20446;-73
2021/08/10 08:57:46;;;;;;;6.80;2.75;;;20.10;74.60;;;;;;5075799;28;20040;-74
2021/08/10 09:00:16;;;;;;;6.35;2.80;;;20.10;74.80;;;;;;5077950;28;20556;-72
2021/08/10 09:02:44;;;;;;;5.50;2.55;;;20.10;74.70;;;;;;5075002;28;20059;-75
2021/08/10 09:05:12;;;;;;;8.07;3.38;;;20.10;74.70;;;;;;5075555;28;20077;-73
2021/08/10 09:07:38;;;;;;;4.65;2.90;;;20.10;75.40;;;;;;5075678;28;20069;-73
2021/08/10 09:10:07;;;;;;;8.88;2.40;;;20.10;75.30;;;;;;5075473;28;20079;-73
2021/08/10 09:12:43;;;;;;;5.63;2.83;;;20.10;75.10;;;;;;5075786;28;20045;-75
2021/08/10 09:15:10;;;;;;;5.47;2.60;;;20.10;75.00;;;;;;5085403;28;20040;-73
2021/08/10 09:17:46;;;;;;;8.05;2.63;;;20.20;75.70;;;;;;5087536;28;20463;-74
2021/08/10 09:20:20;;;;;;;16.58;4.30;;;20.20;75.10;;;;;;5092318;28;20040;-74
2021/08/10 09:22:46;;;;;;;;;;;20.20;75.20;;;;;;5091396;28;20128;-71
2021/08/10 09:25:16;;;;;;;12.10;3.30;;;20.20;75.10;;;;;;5075188;28;20311;-71
2021/08/10 09:27:42;;;;;;;33.72;4.50;;;20.20;75.20;;;;;;5075407;28;20098;-72
2021/08/10 09:30:10;;;;;;;16.80;3.55;;;20.20;75.80;;;;;;5075447;28;20040;-71
2021/08/10 09:32:55;;;;;;;21.10;4.00;;;20.20;75.30;;;;;;5075353;28;20046;-71
2021/08/10 09:35:24;;;;;;;15.57;3.42;;;20.20;75.20;;;;;;5082810;28;20039;-73
2021/08/10 09:38:04;;;;;;;11.85;2.97;;;20.30;75.10;;;;;;5077883;28;20050;-71
2021/08/10 09:40:48;;;;;;;13.32;3.53;;;20.30;74.80;;;;;;5095445;28;20039;-72
2021/08/10 09:43:31;;;;;;;17.02;3.58;;;20.20;75.00;;;;;;5095669;28;20044;-72
2021/08/10 09:46:14;;;;;;;12.57;2.92;;;20.30;75.10;;;;;;5095867;28;20040;-70
2021/08/10 09:48:51;;;;;;;7.70;2.53;;;20.30;74.90;;;;;;5095218;28;20431;-70
2021/08/10 09:51:21;;;;;;;10.90;2.75;;;20.40;74.90;;;;;;5095572;28;20044;-72
2021/08/10 09:54:16;;;;;;;7.03;3.10;;;20.40;74.00;;;;;;5095682;28;20066;-71
2021/08/10 09:56:55;;;;;;;5.90;3.00;;;20.40;74.00;;;;;;5095421;28;20040;-72
2021/08/10 09:59:25;;;;;;;7.88;2.47;;;20.40;73.80;;;;;;5095549;28;20046;-71
2021/08/10 10:01:55;;;;;;;6.40;2.58;;;20.40;73.60;;;;;;5094614;28;20032;-73
2021/08/10 10:04:31;;;;;;;9.15;2.38;;;20.40;72.90;;;;;;5094859;28;20043;-71
2021/08/10 10:07:08;;;;;;;7.03;2.47;;;20.40;72.50;;;;;;5095164;28;20032;-74
2021/08/10 10:09:34;;;;;;;7.72;2.25;;;20.40;72.30;;;;;;5095907;28;20040;-73
2021/08/10 10:12:01;;;;;;;4.97;2.65;;;20.40;72.00;;;;;;5086318;28;20328;-70
2021/08/10 10:14:28;;;;;;;10.00;2.30;;;20.40;71.70;;;;;;5074596;28;20075;-71
2021/08/10 10:16:55;;;;;;;12.23;2.92;;;20.40;71.80;;;;;;5078168;28;20036;-72
2021/08/10 10:19:22;;;;;;;9.30;2.53;;;20.40;72.00;;;;;;5079148;28;20109;-70
2021/08/10 10:21:57;;;;;;;9.75;2.70;;;20.40;72.20;;;;;;5079014;28;20476;-69
2021/08/10 10:24:24;;;;;;;12.55;2.45;;;20.40;72.30;;;;;;5097180;28;20040;-69
2021/08/10 10:27:01;;;;;;;9.27;2.45;;;20.40;72.50;;;;;;5099011;28;20044;-70
2021/08/10 10:29:27;;;;;;;6.30;3.40;;;20.40;72.60;;;;;;5079134;28;20047;-70
2021/08/10 10:31:53;;;;;;;4.22;3.17;;;20.50;73.60;;;;;;5078601;28;20491;-69
2021/08/10 10:34:20;;;;;;;6.13;3.33;;;20.50;74.10;;;;;;5078439;28;20049;-69
2021/08/10 10:36:49;;;;;;;5.22;3.03;;;20.50;74.50;;;;;;5078745;28;20458;-71
2021/08/10 10:39:25;;;;;;;8.98;3.17;;;20.50;75.00;;;;;;5078308;28;20098;-69
2021/08/10 10:41:54;;;;;;;6.95;3.08;;;20.60;75.30;;;;;;5078277;28;20036;-70
2021/08/10 10:44:42;;;;;;;8.73;2.90;;;20.60;75.30;;;;;;5078605;28;20079;-69
2021/08/10 10:47:41;;;;;;;7.07;2.65;;;20.60;75.30;;;;;;5078295;28;20371;-70
2021/08/10 10:50:14;;;;;;;4.88;2.67;;;20.60;75.10;;;;;;5059443;28;20052;-69
2021/08/10 10:52:40;;;;;;;5.72;2.45;;;20.60;75.20;;;;;;5078243;28;20355;-70
2021/08/10 10:55:06;;;;;;;5.90;2.60;;;20.60;75.10;;;;;;5078164;28;20309;-71
2021/08/10 10:57:37;;;;;;;9.25;2.67;;;20.60;75.20;;;;;;5095337;28;20105;-70
2021/08/10 11:00:12;;;;;;;15.55;3.45;;;20.70;75.20;;;;;;5098549;28;20050;-71
2021/08/10 11:02:39;;;;;;;14.15;3.13;;;20.70;74.70;;;;;;5098196;28;20040;-70
2021/08/10 11:05:17;;;;;;;22.10;4.57;;;20.70;74.80;;;;;;5098038;28;20115;-71
2021/08/10 11:07:50;;;;;;;13.15;3.88;;;20.70;74.80;;;;;;5098301;28;20072;-70
2021/08/10 11:10:54;;;;;;;14.20;3.53;;;20.80;74.50;;;;;;5098506;28;20064;-69
2021/08/10 11:13:20;;;;;;;;;;;20.70;74.00;;;;;;4996864;28;20046;-69
2021/08/10 11:15:45;;;;;;;7.55;3.25;;;20.70;73.70;;;;;;4996073;28;20337;-71
2021/08/10 11:18:11;;;;;;;5.60;3.00;;;20.70;72.30;;;;;;5043770;28;20099;-71
2021/08/10 11:20:43;;;;;;;5.78;3.17;;;20.80;71.70;;;;;;5097852;28;20401;-68
2021/08/10 11:23:24;;;;;;;8.90;2.80;;;20.70;71.70;;;;;;5098484;28;20050;-68
2021/08/10 11:25:50;;;;;;;8.85;3.40;;;20.70;72.30;;;;;;5083247;28;20108;-69
2021/08/10 11:28:30;;;;;;;11.80;3.22;;;20.70;72.70;;;;;;5086478;28;20075;-69
2021/08/10 11:31:02;;;;;;;9.50;3.38;;;20.70;73.00;;;;;;5077284;28;20044;-68
2021/08/10 11:33:33;;;;;;;8.10;2.95;;;20.70;73.20;;;;;;5077627;28;20068;-69
2021/08/10 11:36:14;;;;;;;6.88;2.65;;;20.70;73.20;;;;;;5077441;28;20056;-68
2021/08/10 11:38:52;;;;;;;12.02;3.30;;;20.70;72.90;;;;;;5077573;28;20098;-71
2021/08/10 11:41:27;;;;;;;9.25;2.92;;;20.70;73.30;;;;;;5077210;28;20115;-70
2021/08/10 11:43:56;;;;;;;8.65;2.78;;;20.70;73.40;;;;;;5082291;28;20074;-68
2021/08/10 11:46:28;;;;;;;17.15;3.15;;;20.70;73.60;;;;;;5097297;28;20039;-74
2021/08/10 11:48:56;;;;;;;9.10;3.13;;;20.80;73.40;;;;;;5096919;28;20501;-75
2021/08/10 11:51:35;;;;;;;6.95;2.80;;;20.80;72.90;;;;;;5079425;28;20036;-74
2021/08/10 11:54:12;;;;;;;5.35;2.38;;;20.80;71.90;;;;;;5097348;28;20036;-70
2021/08/10 11:56:40;;;;;;;6.72;2.90;;;20.80;71.60;;;;;;5098034;28;20051;-70
2021/08/10 11:59:11;;;;;;;8.48;2.75;;;20.80;71.60;;;;;;5097141;28;20036;-68
2021/08/10 12:01:38;;;;;;;9.57;2.78;;;20.80;71.90;;;;;;5097142;28;20033;-75
2021/08/10 12:04:10;;;;;;;11.27;2.50;;;20.80;72.10;;;;;;5096912;28;20131;-76
2021/08/10 12:06:36;;;;;;;11.27;3.25;;;20.80;71.90;;;;;;5097049;28;20040;-75
2021/08/10 12:09:06;;;;;;;9.20;2.30;;;20.80;72.00;;;;;;5097216;28;20036;-76
2021/08/10 12:11:32;;;;;;;9.57;2.85;;;20.90;72.00;;;;;;5097321;28;20064;-75
2021/08/10 12:14:16;;;;;;;9.23;2.85;;;20.90;72.10;;;;;;5097246;28;20088;-77
2021/08/10 12:17:02;;;;;;;7.03;2.72;;;20.80;71.90;;;;;;5096816;28;20100;-77
2021/08/10 12:19:42;;;;;;;7.43;2.70;;;20.90;72.20;;;;;;5096935;28;20127;-75
2021/08/10 12:22:17;;;;;;;7.28;3.13;;;20.90;72.40;;;;;;5076341;28;20212;-74
2021/08/10 12:24:44;;;;;;;12.15;3.33;;;20.90;72.60;;;;;;5076060;28;20040;-76
2021/08/10 12:27:14;;;;;;;7.13;2.95;;;20.90;72.70;;;;;;5076290;28;20052;-76
2021/08/10 12:29:44;;;;;;;10.30;3.15;;;20.90;72.60;;;;;;5076506;28;20549;-75
2021/08/10 12:32:25;;;;;;;19.23;3.20;;;20.90;72.50;;;;;;5076804;28;20044;-75
2021/08/10 12:34:52;;;;;;;16.05;3.72;;;20.90;72.90;;;;;;5070153;28;20472;-76
2021/08/10 12:37:31;;;;;;;24.20;3.25;;;20.90;73.10;;;;;;5073084;28;20059;-75
2021/08/10 12:39:57;;;;;;;17.45;3.22;;;20.90;73.30;;;;;;5085028;28;20098;-75
2021/08/10 12:42:23;;;;;;;22.40;3.13;;;20.90;73.40;;;;;;5078683;28;20041;-75
2021/08/10 12:44:51;;;;;;;13.95;3.13;;;21.00;73.60;;;;;;5075491;28;20045;-75
2021/08/10 12:47:30;;;;;;;13.93;3.60;;;20.90;73.60;;;;;;5075655;28;20041;-74
2021/08/10 12:49:57;;;;;;;17.90;3.00;;;21.00;73.80;;;;;;5075964;28;20110;-68
2021/08/10 12:52:39;;;;;;;19.88;3.80;;;21.00;73.70;;;;;;5089766;28;20040;-69
2021/08/10 12:55:05;;;;;;;7.43;2.60;;;21.00;73.60;;;;;;5096558;28;20065;-70